Time;durP1;ratioP1;P1;durP2;ratioP2;P2;SDS_P1;SDS_P2;PMS_P1;PMS_P2;Temp;Humidity;BMP_temperature;BMP_pressure;BME280_temperature;BME280_humidity;BME280_pressure;Samples;Min_cycle;Max_cycle;Signal;HPM_P1;HPM_P2
2023/05/29 00:00:17;;;;;;;0.20;0.20;;;6.40;99.90;;;;;;5033613;28;20478;-73
2023/05/29 00:02:44;;;;;;;0.22;0.22;;;6.40;99.90;;;;;;5034001;28;20079;-73
2023/05/29 00:05:13;;;;;;;0.20;0.20;;;6.30;99.90;;;;;;5033938;28;20531;-72
2023/05/29 00:07:39;;;;;;;0.30;0.30;;;6.20;99.90;;;;;;5034039;28;20465;-74
2023/05/29 00:10:06;;;;;;;0.20;0.20;;;6.10;99.90;;;;;;5033639;28;20033;-74
2023/05/29 00:12:32;;;;;;;0.25;0.25;;;6.10;99.90;;;;;;5031266;28;20473;-74
2023/05/29 00:14:58;;;;;;;0.25;0.25;;;6.10;99.90;;;;;;5033550;28;20097;-75
2023/05/29 00:17:24;;;;;;;0.28;0.28;;;6.00;99.90;;;;;;5033436;28;20029;-74
2023/05/29 00:19:50;;;;;;;0.20;0.20;;;5.90;99.90;;;;;;5016990;28;20021;-74
2023/05/29 00:22:16;;;;;;;0.20;0.20;;;5.90;99.90;;;;;;5013607;28;20559;-74
2023/05/29 00:24:41;;;;;;;0.20;0.20;;;5.90;99.90;;;;;;5021878;28;20030;-75
2023/05/29 00:27:08;;;;;;;0.30;0.30;;;5.90;99.90;;;;;;5033327;28;20033;-74
2023/05/29 00:29:34;;;;;;;0.20;0.20;;;5.90;99.90;;;;;;5033038;28;20017;-74
2023/05/29 00:31:59;;;;;;;0.20;0.20;;;5.80;99.90;;;;;;5033430;28;20037;-74
2023/05/29 00:34:26;;;;;;;0.22;0.22;;;5.80;99.90;;;;;;5032890;28;20033;-74
2023/05/29 00:36:52;;;;;;;0.30;0.30;;;5.80;99.90;;;;;;5032603;28;20021;-74
2023/05/29 00:39:17;;;;;;;0.22;0.22;;;5.70;99.90;;;;;;5033065;28;20502;-74
2023/05/29 00:41:43;;;;;;;0.20;0.20;;;5.70;99.90;;;;;;5032966;28;20033;-74
2023/05/29 00:44:09;;;;;;;0.17;0.17;;;5.70;99.90;;;;;;5033023;28;20030;-74
2023/05/29 00:46:34;;;;;;;0.20;0.20;;;5.70;99.90;;;;;;5032987;28;20057;-74
2023/05/29 00:49:01;;;;;;;0.20;0.20;;;5.70;99.90;;;;;;5033133;28;20030;-75
2023/05/29 00:51:28;;;;;;;0.22;0.22;;;5.60;99.90;;;;;;5032761;28;20391;-75
2023/05/29 00:53:54;;;;;;;0.20;0.20;;;5.60;99.90;;;;;;5033040;28;20029;-75
2023/05/29 00:56:21;;;;;;;0.22;0.22;;;5.60;99.90;;;;;;5033117;28;20025;-74
2023/05/29 00:58:49;;;;;;;0.28;0.28;;;5.60;99.90;;;;;;5014722;28;20018;-74
2023/05/29 01:01:16;;;;;;;0.20;0.20;;;5.60;99.90;;;;;;5013036;28;20514;-74
2023/05/29 01:03:42;;;;;;;0.20;0.20;;;5.60;99.90;;;;;;5027143;28;20030;-74
2023/05/29 01:06:08;;;;;;;0.20;0.20;;;5.60;99.90;;;;;;5027027;28;20033;-75
2023/05/29 01:08:34;;;;;;;0.20;0.20;;;5.70;99.90;;;;;;5032616;28;20399;-74
2023/05/29 01:11:11;;;;;;;0.20;0.20;;;5.80;99.90;;;;;;5031659;28;20145;-75
2023/05/29 01:13:38;;;;;;;0.20;0.20;;;5.80;99.90;;;;;;5017134;28;20149;-74
2023/05/29 01:16:12;;;;;;;0.20;0.20;;;5.80;99.90;;;;;;5016822;28;20494;-75
2023/05/29 01:19:28;;;;;;;0.20;0.20;;;5.70;99.90;;;;;;5030325;28;20030;-74
2023/05/29 01:22:13;;;;;;;0.20;0.20;;;5.70;99.90;;;;;;5013839;28;20041;-74
2023/05/29 01:25:04;;;;;;;0.20;0.20;;;5.70;99.90;;;;;;5036335;28;20036;-74
2023/05/29 01:27:32;;;;;;;0.30;0.30;;;5.60;99.90;;;;;;5036489;28;20083;-75
2023/05/29 01:29:58;;;;;;;0.30;0.30;;;5.60;99.90;;;;;;5036500;28;20022;-75
2023/05/29 01:32:25;;;;;;;0.20;0.20;;;5.60;99.90;;;;;;5036774;28;20104;-74
2023/05/29 01:34:51;;;;;;;0.20;0.20;;;5.60;99.90;;;;;;5036261;28;20037;-74
2023/05/29 01:37:16;;;;;;;0.20;0.20;;;5.50;99.90;;;;;;5036517;28;20478;-75
2023/05/29 01:39:42;;;;;;;0.20;0.20;;;5.50;99.90;;;;;;5036089;28;20100;-74
2023/05/29 01:42:08;;;;;;;0.20;0.20;;;5.50;99.90;;;;;;5036425;28;20026;-75
2023/05/29 01:44:34;;;;;;;0.20;0.20;;;5.50;99.90;;;;;;5036408;28;20057;-74
2023/05/29 01:47:02;;;;;;;0.20;0.20;;;5.50;99.90;;;;;;5037048;28;20410;-74
2023/05/29 01:49:29;;;;;;;0.10;0.10;;;5.50;99.90;;;;;;5036327;28;20053;-74
2023/05/29 01:51:55;;;;;;;0.13;0.13;;;5.50;99.90;;;;;;5036678;28;20123;-73
2023/05/29 01:54:20;;;;;;;0.20;0.20;;;5.50;99.90;;;;;;5036719;28;20057;-74
2023/05/29 01:56:46;;;;;;;0.30;0.30;;;5.50;99.90;;;;;;5036301;28;20074;-74
2023/05/29 01:59:13;;;;;;;0.25;0.25;;;5.50;99.90;;;;;;5036279;28;20057;-74
2023/05/29 02:01:39;;;;;;;0.10;0.10;;;5.40;99.90;;;;;;5036204;28;20037;-73
2023/05/29 02:04:05;;;;;;;0.20;0.20;;;5.40;99.90;;;;;;5036184;28;20495;-73
2023/05/29 02:06:33;;;;;;;0.30;0.30;;;5.40;99.90;;;;;;5036036;28;20044;-74
2023/05/29 02:08:58;;;;;;;0.15;0.15;;;5.40;99.90;;;;;;5036295;28;20075;-73
2023/05/29 02:11:25;;;;;;;0.20;0.20;;;5.30;99.90;;;;;;5035997;28;20033;-73
2023/05/29 02:13:52;;;;;;;0.20;0.20;;;5.30;99.90;;;;;;5034729;28;20434;-73
2023/05/29 02:16:20;;;;;;;0.10;0.10;;;5.30;99.90;;;;;;5034637;28;20022;-74
2023/05/29 02:18:46;;;;;;;0.30;0.30;;;5.20;99.90;;;;;;5035914;28;20483;-74
2023/05/29 02:21:11;;;;;;;0.20;0.20;;;5.20;99.90;;;;;;5035865;28;20076;-73
2023/05/29 02:23:37;;;;;;;0.20;0.20;;;5.10;99.90;;;;;;5035725;28;20033;-73
2023/05/29 02:26:02;;;;;;;0.15;0.15;;;5.10;99.90;;;;;;5034477;28;20029;-74
2023/05/29 02:28:28;;;;;;;0.30;0.30;;;5.00;99.90;;;;;;5035650;28;20029;-73
2023/05/29 02:30:54;;;;;;;0.20;0.20;;;5.00;99.90;;;;;;5034357;28;20478;-74
2023/05/29 02:33:19;;;;;;;0.20;0.20;;;5.00;99.90;;;;;;5035738;28;20456;-74
2023/05/29 02:35:45;;;;;;;0.20;0.20;;;5.00;99.90;;;;;;5035873;28;20421;-72
2023/05/29 02:38:10;;;;;;;0.15;0.15;;;5.10;99.90;;;;;;5035813;28;20048;-73
2023/05/29 02:40:36;;;;;;;0.10;0.10;;;5.00;99.90;;;;;;5035695;28;20021;-72
2023/05/29 02:43:01;;;;;;;0.20;0.20;;;5.10;99.90;;;;;;5035412;28;20124;-73
2023/05/29 02:45:27;;;;;;;0.20;0.20;;;5.00;99.90;;;;;;5035374;28;20021;-73
2023/05/29 02:47:52;;;;;;;0.20;0.20;;;5.10;99.90;;;;;;5035310;28;20414;-73
2023/05/29 02:50:18;;;;;;;0.30;0.30;;;5.30;99.90;;;;;;5035390;28;20034;-73
2023/05/29 02:52:44;;;;;;;0.20;0.20;;;5.30;99.90;;;;;;5035238;28;20483;-73
2023/05/29 02:55:09;;;;;;;0.20;0.20;;;5.30;99.90;;;;;;5035772;28;20383;-73
2023/05/29 02:57:35;;;;;;;0.20;0.20;;;5.30;99.90;;;;;;5035331;28;20056;-73
2023/05/29 03:00:00;;;;;;;0.20;0.20;;;5.30;99.90;;;;;;5033857;28;20033;-73
2023/05/29 03:02:26;;;;;;;0.20;0.20;;;5.40;99.90;;;;;;5035058;28;20030;-73
2023/05/29 03:04:53;;;;;;;0.20;0.20;;;5.50;99.90;;;;;;5033719;28;20030;-73
2023/05/29 03:07:19;;;;;;;0.28;0.28;;;5.60;99.90;;;;;;5034925;28;20025;-73
2023/05/29 03:09:45;;;;;;;0.20;0.20;;;5.60;99.90;;;;;;5035228;28;20029;-73
2023/05/29 03:12:11;;;;;;;0.20;0.20;;;5.70;99.90;;;;;;5026945;28;20398;-72
2023/05/29 03:14:36;;;;;;;0.20;0.20;;;5.80;99.90;;;;;;5014891;28;20060;-73
2023/05/29 03:17:05;;;;;;;0.20;0.20;;;5.80;99.90;;;;;;5014670;28;20392;-73
2023/05/29 03:19:30;;;;;;;0.20;0.20;;;5.90;99.90;;;;;;5014692;28;20061;-72
2023/05/29 03:21:56;;;;;;;0.20;0.20;;;5.80;99.90;;;;;;5014885;28;20060;-73
2023/05/29 03:24:23;;;;;;;0.15;0.15;;;5.90;99.90;;;;;;5023576;28;20029;-73
2023/05/29 03:26:49;;;;;;;0.20;0.20;;;5.90;99.90;;;;;;5035187;28;20052;-73
2023/05/29 03:29:16;;;;;;;0.20;0.20;;;6.00;99.90;;;;;;5034318;28;20072;-73
2023/05/29 03:31:41;;;;;;;0.30;0.30;;;5.90;99.90;;;;;;5034522;28;20014;-73
2023/05/29 03:34:07;;;;;;;0.20;0.20;;;6.00;99.90;;;;;;5033799;28;20045;-73
2023/05/29 03:36:33;;;;;;;0.20;0.20;;;6.00;99.90;;;;;;5034405;28;20029;-73
2023/05/29 03:38:58;;;;;;;0.20;0.20;;;6.00;99.90;;;;;;5034435;28;20026;-73
2023/05/29 03:41:25;;;;;;;0.20;0.20;;;6.00;99.90;;;;;;5034013;28;20032;-73
2023/05/29 03:43:50;;;;;;;0.20;0.20;;;6.00;99.90;;;;;;5034166;28;20394;-73
2023/05/29 03:46:16;;;;;;;0.20;0.20;;;6.10;99.90;;;;;;5034269;28;20021;-73
2023/05/29 03:48:42;;;;;;;0.20;0.20;;;6.10;99.90;;;;;;5033987;28;20080;-73
2023/05/29 03:51:07;;;;;;;0.20;0.20;;;6.20;99.90;;;;;;5034106;28;20021;-73
2023/05/29 03:53:33;;;;;;;0.17;0.17;;;6.20;99.90;;;;;;5034389;28;20025;-72
2023/05/29 03:55:58;;;;;;;0.20;0.20;;;6.20;99.90;;;;;;5034203;28;20025;-73
2023/05/29 03:58:24;;;;;;;0.20;0.20;;;6.30;99.90;;;;;;5034545;28;20036;-73
2023/05/29 04:00:49;;;;;;;0.20;0.20;;;6.40;99.90;;;;;;5034067;28;20036;-73
2023/05/29 04:03:15;;;;;;;0.20;0.20;;;6.50;99.90;;;;;;5034135;28;20040;-72
2023/05/29 04:05:41;;;;;;;0.20;0.20;;;6.60;99.90;;;;;;5033871;28;20036;-73
2023/05/29 04:08:08;;;;;;;0.20;0.20;;;6.70;99.90;;;;;;5032479;28;20511;-73
2023/05/29 04:10:34;;;;;;;0.20;0.20;;;6.80;99.90;;;;;;5033770;28;20021;-73
2023/05/29 04:13:03;;;;;;;0.20;0.20;;;7.00;99.90;;;;;;5031947;28;20034;-73
2023/05/29 04:15:30;;;;;;;0.20;0.20;;;7.00;99.90;;;;;;5033332;28;20026;-73
2023/05/29 04:17:56;;;;;;;0.20;0.20;;;7.10;99.90;;;;;;5032478;28;20021;-73
2023/05/29 04:20:21;;;;;;;0.13;0.13;;;7.20;99.90;;;;;;5033545;28;20084;-73
2023/05/29 04:22:47;;;;;;;0.30;0.30;;;7.30;99.90;;;;;;5033550;28;20052;-73
2023/05/29 04:25:13;;;;;;;0.20;0.20;;;7.40;99.90;;;;;;5033455;28;20111;-73
2023/05/29 04:27:38;;;;;;;0.10;0.10;;;7.50;99.90;;;;;;5033358;28;20094;-72
2023/05/29 04:30:07;;;;;;;0.20;0.20;;;7.50;99.90;;;;;;5033603;28;20112;-73
2023/05/29 04:32:36;;;;;;;0.22;0.22;;;7.60;99.90;;;;;;5033399;28;20029;-73
2023/05/29 04:35:02;;;;;;;0.10;0.10;;;7.70;99.90;;;;;;5034568;28;20029;-72
2023/05/29 04:37:29;;;;;;;0.20;0.20;;;7.90;99.90;;;;;;5033386;28;20018;-73
2023/05/29 04:39:58;;;;;;;0.20;0.20;;;8.00;99.90;;;;;;5032111;28;20055;-72
2023/05/29 04:42:24;;;;;;;0.20;0.20;;;8.10;99.90;;;;;;5033139;28;20079;-73
2023/05/29 04:44:52;;;;;;;0.20;0.20;;;8.30;99.90;;;;;;5032571;28;20104;-72
2023/05/29 04:47:18;;;;;;;0.20;0.20;;;8.40;99.90;;;;;;5032775;28;20030;-73
2023/05/29 04:49:48;;;;;;;0.15;0.15;;;8.50;99.90;;;;;;5031900;28;20518;-73
2023/05/29 04:52:15;;;;;;;0.30;0.30;;;8.60;99.90;;;;;;5033213;28;20032;-73
2023/05/29 04:54:40;;;;;;;0.20;0.20;;;8.70;99.90;;;;;;5033224;28;20029;-73
2023/05/29 04:57:06;;;;;;;0.20;0.20;;;8.80;99.90;;;;;;5033042;28;20025;-73
2023/05/29 04:59:31;;;;;;;0.20;0.20;;;8.90;99.90;;;;;;5031865;28;20048;-73
2023/05/29 05:01:57;;;;;;;0.13;0.13;;;9.00;99.90;;;;;;5032854;28;20051;-72
2023/05/29 05:04:22;;;;;;;0.15;0.15;;;9.10;99.90;;;;;;5031645;28;20510;-72
2023/05/29 05:06:48;;;;;;;0.20;0.20;;;9.10;99.90;;;;;;5033140;28;20485;-73
2023/05/29 05:09:13;;;;;;;0.20;0.20;;;9.10;99.90;;;;;;5033194;28;20029;-73
2023/05/29 05:11:39;;;;;;;0.17;0.17;;;9.20;99.90;;;;;;5032907;28;20022;-72
2023/05/29 05:14:04;;;;;;;0.20;0.20;;;9.30;99.90;;;;;;5032915;28;20018;-73
2023/05/29 05:16:30;;;;;;;0.20;0.20;;;9.30;99.90;;;;;;5032749;28;20029;-73
2023/05/29 05:18:56;;;;;;;0.20;0.20;;;9.40;99.90;;;;;;5032932;28;20072;-72
2023/05/29 05:21:21;;;;;;;0.10;0.10;;;9.40;99.90;;;;;;5032773;28;20021;-72
2023/05/29 05:23:47;;;;;;;0.10;0.10;;;9.50;99.90;;;;;;5032545;28;20025;-73
2023/05/29 05:26:12;;;;;;;0.20;0.20;;;9.50;99.90;;;;;;5032628;28;20033;-73
2023/05/29 05:28:38;;;;;;;0.20;0.20;;;9.50;99.90;;;;;;5032734;28;20030;-73
2023/05/29 05:31:03;;;;;;;0.10;0.10;;;9.60;99.90;;;;;;5032721;28;20048;-73
2023/05/29 05:33:29;;;;;;;0.20;0.20;;;9.70;99.90;;;;;;5032558;28;20050;-73
2023/05/29 05:35:54;;;;;;;0.20;0.20;;;9.70;99.90;;;;;;5032807;28;20391;-73
2023/05/29 05:38:20;;;;;;;0.10;0.10;;;9.80;99.90;;;;;;5032736;28;20450;-73
2023/05/29 05:40:45;;;;;;;0.20;0.20;;;9.90;99.90;;;;;;5032963;28;20025;-73
2023/05/29 05:43:11;;;;;;;0.10;0.10;;;10.00;99.90;;;;;;5032553;28;20487;-73
2023/05/29 05:45:41;;;;;;;0.20;0.20;;;10.10;99.90;;;;;;5032655;28;20056;-73
2023/05/29 05:48:07;;;;;;;0.17;0.17;;;10.30;99.90;;;;;;5031129;28;20022;-73
2023/05/29 05:50:33;;;;;;;0.20;0.20;;;10.40;99.90;;;;;;5032601;28;20028;-73
2023/05/29 05:52:58;;;;;;;0.20;0.20;;;10.50;99.90;;;;;;5032179;28;20076;-73
2023/05/29 05:55:26;;;;;;;0.20;0.20;;;10.60;99.90;;;;;;5032621;28;20021;-73
2023/05/29 05:57:51;;;;;;;0.20;0.20;;;10.60;99.90;;;;;;5034990;28;20020;-72
2023/05/29 06:00:17;;;;;;;0.10;0.10;;;10.60;99.90;;;;;;5036233;28;20022;-73
2023/05/29 06:02:44;;;;;;;0.20;0.20;;;10.70;99.90;;;;;;5036052;28;20026;-73
2023/05/29 06:05:11;;;;;;;0.20;0.20;;;10.80;99.90;;;;;;5036193;28;20017;-73
2023/05/29 06:07:37;;;;;;;0.20;0.20;;;10.90;99.90;;;;;;5036118;28;20022;-74
2023/05/29 06:10:03;;;;;;;0.17;0.17;;;11.10;99.90;;;;;;5036059;28;20364;-73
2023/05/29 06:12:29;;;;;;;0.20;0.20;;;11.20;99.90;;;;;;5034584;28;20057;-73
2023/05/29 06:14:55;;;;;;;0.20;0.20;;;11.50;99.90;;;;;;5035605;28;20550;-73
2023/05/29 06:17:21;;;;;;;0.20;0.20;;;11.60;99.90;;;;;;5035901;28;20382;-73
2023/05/29 06:19:47;;;;;;;0.20;0.20;;;11.80;99.90;;;;;;5034612;28;20113;-73
2023/05/29 06:22:14;;;;;;;0.20;0.20;;;11.90;99.90;;;;;;5036419;28;20061;-73
2023/05/29 06:24:39;;;;;;;0.20;0.20;;;12.10;99.90;;;;;;5035795;28;20541;-73
2023/05/29 06:27:06;;;;;;;0.20;0.20;;;12.20;99.90;;;;;;5035801;28;20025;-74
2023/05/29 06:29:32;;;;;;;0.20;0.20;;;12.20;99.90;;;;;;5035614;28;20018;-74
2023/05/29 06:31:57;;;;;;;0.30;0.30;;;12.10;99.90;;;;;;5035636;28;20101;-74
2023/05/29 06:34:23;;;;;;;0.10;0.10;;;12.10;99.90;;;;;;5035399;28;20056;-75
2023/05/29 06:36:48;;;;;;;0.20;0.20;;;12.10;99.90;;;;;;5035701;28;20542;-75
2023/05/29 06:39:15;;;;;;;0.30;0.30;;;12.10;99.90;;;;;;5035484;28;20057;-73
2023/05/29 06:41:40;;;;;;;0.20;0.20;;;12.30;99.90;;;;;;5035488;28;20517;-73
2023/05/29 06:44:06;;;;;;;0.20;0.20;;;12.50;99.90;;;;;;5035302;28;20069;-74
2023/05/29 06:46:31;;;;;;;0.17;0.17;;;12.60;99.90;;;;;;5035041;28;20052;-74
2023/05/29 06:48:57;;;;;;;0.20;0.20;;;12.80;99.90;;;;;;5035280;28;20021;-75
2023/05/29 06:51:22;;;;;;;0.20;0.20;;;12.90;99.90;;;;;;5035204;28;20033;-75
2023/05/29 06:53:48;;;;;;;0.10;0.10;;;12.90;99.90;;;;;;5034795;28;20145;-75
2023/05/29 06:56:13;;;;;;;0.20;0.20;;;13.00;99.90;;;;;;5035101;28;20021;-75
2023/05/29 06:58:39;;;;;;;0.20;0.20;;;13.10;99.90;;;;;;5035254;28;20032;-75
2023/05/29 07:01:05;;;;;;;0.20;0.20;;;13.30;99.90;;;;;;5034974;28;20026;-75
2023/05/29 07:03:31;;;;;;;0.20;0.20;;;13.30;99.90;;;;;;5034977;28;20033;-75
2023/05/29 07:05:56;;;;;;;0.10;0.10;;;13.50;99.90;;;;;;5034810;28;20088;-75
2023/05/29 07:08:23;;;;;;;0.20;0.20;;;13.60;99.90;;;;;;5032438;28;20491;-75
2023/05/29 07:10:48;;;;;;;0.17;0.17;;;13.70;99.90;;;;;;5034462;28;20025;-75
2023/05/29 07:13:16;;;;;;;0.20;0.20;;;13.60;99.90;;;;;;5034743;28;20505;-75
2023/05/29 07:15:42;;;;;;;0.13;0.13;;;13.70;99.90;;;;;;5034280;28;20021;-75
2023/05/29 07:18:07;;;;;;;0.20;0.20;;;14.00;99.90;;;;;;5034735;28;20433;-75
2023/05/29 07:20:33;;;;;;;0.30;0.30;;;14.10;99.90;;;;;;5034458;28;20486;-75
2023/05/29 07:22:58;;;;;;;0.20;0.20;;;14.30;99.90;;;;;;5034719;28;20495;-75
2023/05/29 07:25:24;;;;;;;0.17;0.17;;;14.50;99.90;;;;;;5034366;28;20108;-75
2023/05/29 07:27:49;;;;;;;0.10;0.10;;;14.50;99.90;;;;;;5033289;28;20021;-75
2023/05/29 07:30:15;;;;;;;0.10;0.10;;;14.50;99.90;;;;;;5034096;28;20060;-75
2023/05/29 07:32:41;;;;;;;0.20;0.20;;;14.70;99.90;;;;;;5034310;28;20140;-75
2023/05/29 07:35:06;;;;;;;0.10;0.10;;;14.70;99.90;;;;;;5034431;28;20029;-75
2023/05/29 07:37:32;;;;;;;0.20;0.20;;;14.80;99.90;;;;;;5033903;28;20021;-76
2023/05/29 07:39:58;;;;;;;0.20;0.20;;;14.70;99.90;;;;;;5034207;28;20076;-75
2023/05/29 07:42:23;;;;;;;0.20;0.20;;;14.50;99.90;;;;;;5033842;28;20037;-75
2023/05/29 07:44:49;;;;;;;0.20;0.20;;;14.60;99.90;;;;;;5034092;28;20045;-75
2023/05/29 07:47:15;;;;;;;0.17;0.17;;;14.60;99.90;;;;;;5034099;28;20025;-76
2023/05/29 07:49:40;;;;;;;0.22;0.22;;;14.50;99.90;;;;;;5034139;28;20095;-76
2023/05/29 07:52:06;;;;;;;0.20;0.20;;;14.70;99.90;;;;;;5034021;28;20025;-76
2023/05/29 07:54:32;;;;;;;0.20;0.20;;;14.90;99.90;;;;;;5034211;28;20040;-75
2023/05/29 07:56:59;;;;;;;0.20;0.20;;;15.00;99.90;;;;;;5034163;28;20454;-76
2023/05/29 07:59:25;;;;;;;0.10;0.10;;;15.30;99.90;;;;;;5034078;28;20017;-75
2023/05/29 08:01:51;;;;;;;0.10;0.10;;;15.30;99.90;;;;;;5034112;28;20026;-76
2023/05/29 08:04:16;;;;;;;0.20;0.20;;;15.40;99.90;;;;;;5033761;28;20029;-76
2023/05/29 08:06:43;;;;;;;0.20;0.20;;;15.50;99.90;;;;;;5033591;28;20029;-76
2023/05/29 08:09:09;;;;;;;0.20;0.20;;;15.60;99.90;;;;;;5033760;28;20025;-76
2023/05/29 08:11:38;;;;;;;0.20;0.20;;;15.90;99.90;;;;;;5034116;28;20022;-74
2023/05/29 08:14:04;;;;;;;0.17;0.17;;;16.00;99.90;;;;;;5034041;28;20053;-76
2023/05/29 08:16:29;;;;;;;0.10;0.10;;;16.10;99.90;;;;;;5033838;28;20450;-75
2023/05/29 08:18:55;;;;;;;0.20;0.20;;;16.10;99.90;;;;;;5032606;28;20029;-75
2023/05/29 08:21:21;;;;;;;0.20;0.20;;;16.10;99.90;;;;;;5033161;28;20486;-75
2023/05/29 08:23:47;;;;;;;0.15;0.15;;;15.90;99.90;;;;;;5033647;28;20026;-74
2023/05/29 08:26:13;;;;;;;0.20;0.20;;;15.90;99.90;;;;;;5033565;28;20076;-74
2023/05/29 08:28:39;;;;;;;0.10;0.10;;;15.90;99.90;;;;;;5033331;28;20026;-77
2023/05/29 08:31:05;;;;;;;0.20;0.20;;;16.20;99.90;;;;;;5033741;28;20540;-75
2023/05/29 08:33:32;;;;;;;0.20;0.20;;;16.30;99.90;;;;;;5056561;23;20423;-72
2023/05/29 08:36:00;;;;;;;0.20;0.20;;;16.30;99.90;;;;;;5032027;28;20040;-71
2023/05/29 08:38:26;;;;;;;0.10;0.10;;;16.40;99.90;;;;;;5033102;28;20036;-72
2023/05/29 08:40:51;;;;;;;0.10;0.10;;;16.40;99.90;;;;;;5033077;28;20026;-72
2023/05/29 08:43:32;;;;;;;0.20;0.20;;;16.70;99.90;;;;;;5032729;28;20024;-71
2023/05/29 08:46:04;;;;;;;0.17;0.17;;;17.00;99.90;;;;;;5013306;28;20026;-71
2023/05/29 08:48:30;;;;;;;0.10;0.10;;;17.00;99.90;;;;;;5013448;28;20434;-71
2023/05/29 08:50:58;;;;;;;0.10;0.10;;;17.00;99.90;;;;;;5012987;28;20097;-73
2023/05/29 08:53:24;;;;;;;0.20;0.20;;;17.00;99.90;;;;;;5013425;28;20538;-73
2023/05/29 08:55:52;;;;;;;0.10;0.10;;;17.00;99.90;;;;;;5013347;28;20036;-74
2023/05/29 08:58:21;;;;;;;0.10;0.10;;;17.00;99.90;;;;;;5013289;28;20434;-71
2023/05/29 09:00:48;;;;;;;0.10;0.10;;;17.10;99.90;;;;;;5012849;28;20029;-71
2023/05/29 09:03:15;;;;;;;0.10;0.10;;;17.30;99.90;;;;;;5013313;28;20029;-71
2023/05/29 09:05:41;;;;;;;0.10;0.10;;;17.40;99.90;;;;;;5012873;28;20026;-71
2023/05/29 09:08:09;;;;;;;0.10;0.10;;;17.60;99.90;;;;;;5013091;28;20029;-71
2023/05/29 09:10:35;;;;;;;0.20;0.20;;;17.50;99.90;;;;;;4995164;28;20062;-71
2023/05/29 09:13:01;;;;;;;0.20;0.20;;;17.40;99.90;;;;;;4991931;28;20492;-72
2023/05/29 09:15:27;;;;;;;0.17;0.17;;;17.50;99.90;;;;;;4992980;28;20026;-72
2023/05/29 09:17:54;;;;;;;0.10;0.10;;;17.60;99.90;;;;;;4993401;28;20026;-72
2023/05/29 09:20:24;;;;;;;0.10;0.10;;;17.60;99.90;;;;;;4993101;28;20026;-71
2023/05/29 09:22:58;;;;;;;0.10;0.10;;;17.40;99.90;;;;;;4998602;28;20057;-72
2023/05/29 09:25:26;;;;;;;0.17;0.17;;;17.50;99.90;;;;;;4995070;28;20077;-72
2023/05/29 09:28:00;;;;;;;0.20;0.20;;;17.60;99.90;;;;;;5012636;28;20034;-71
2023/05/29 09:30:31;;;;;;;0.10;0.10;;;17.70;99.90;;;;;;5012950;28;20032;-71
2023/05/29 09:32:58;;;;;;;0.10;0.10;;;17.60;99.90;;;;;;5015171;28;20105;-71
2023/05/29 09:35:23;;;;;;;0.10;0.10;;;17.60;99.90;;;;;;5016487;28;20409;-71
2023/05/29 09:37:50;;;;;;;0.10;0.10;;;17.80;99.90;;;;;;5016484;28;20022;-71
2023/05/29 09:40:15;;;;;;;0.10;0.10;;;18.00;99.90;;;;;;5016671;28;20480;-71
2023/05/29 09:42:41;;;;;;;0.10;0.10;;;18.10;99.90;;;;;;5016322;28;20030;-71
2023/05/29 09:45:08;;;;;;;0.10;0.10;;;18.20;99.90;;;;;;5016410;28;20081;-71
2023/05/29 09:47:35;;;;;;;0.10;0.10;;;18.30;99.90;;;;;;5016082;28;20479;-71
2023/05/29 09:50:01;;;;;;;0.10;0.10;;;18.60;99.90;;;;;;5016094;28;20033;-72
2023/05/29 09:52:30;;;;;;;0.10;0.10;;;18.70;99.90;;;;;;4998541;28;20047;-71
2023/05/29 09:54:56;;;;;;;0.10;0.10;;;18.90;99.90;;;;;;5016395;28;20037;-72
2023/05/29 09:57:24;;;;;;;0.10;0.10;;;18.80;99.90;;;;;;5016413;28;20433;-71
2023/05/29 09:59:52;;;;;;;0.10;0.10;;;18.60;99.90;;;;;;5016420;28;20058;-72
2023/05/29 10:02:18;;;;;;;0.10;0.10;;;18.60;99.90;;;;;;5016318;28;20029;-73
2023/05/29 10:04:44;;;;;;;0.15;0.15;;;18.30;99.90;;;;;;4998200;28;20036;-72
2023/05/29 10:07:17;;;;;;;0.20;0.20;;;17.90;99.90;;;;;;5016208;28;20026;-72
2023/05/29 10:09:48;;;;;;;0.10;0.10;;;18.00;99.90;;;;;;4998302;28;20498;-75
2023/05/29 10:12:15;;;;;;;0.10;0.10;;;18.40;99.90;;;;;;5016072;28;20041;-75
2023/05/29 10:14:43;;;;;;;0.10;0.10;;;18.30;99.90;;;;;;5015765;28;20052;-74
2023/05/29 10:17:11;;;;;;;0.10;0.10;;;18.40;99.90;;;;;;5016199;28;20028;-75
2023/05/29 10:19:39;;;;;;;0.10;0.10;;;18.50;99.90;;;;;;5015962;28;20030;-75
2023/05/29 10:22:06;;;;;;;0.20;0.20;;;18.50;99.90;;;;;;5015779;28;20026;-74
2023/05/29 10:24:32;;;;;;;0.10;0.10;;;18.40;99.90;;;;;;5015825;28;20487;-74
2023/05/29 10:26:58;;;;;;;0.10;0.10;;;18.70;99.90;;;;;;5015762;28;20054;-74
2023/05/29 10:29:53;;;;;;;0.13;0.13;;;19.10;99.90;;;;;;5015771;28;20521;-74
2023/05/29 10:32:30;;;;;;;0.15;0.15;;;19.20;99.90;;;;;;5015602;28;20022;-73
2023/05/29 10:35:34;;;;;;;0.10;0.10;;;19.10;99.90;;;;;;5015508;28;20036;-74
2023/05/29 10:38:09;;;;;;;0.10;0.10;;;18.80;99.90;;;;;;4961719;28;20427;-72
2023/05/29 10:40:35;;;;;;;0.10;0.10;;;18.90;99.90;;;;;;5015576;28;20080;-72
2023/05/29 10:43:01;;;;;;;0.20;0.20;;;19.20;99.90;;;;;;5014461;28;20463;-71
2023/05/29 10:45:32;;;;;;;0.05;0.05;;;19.20;99.90;;;;;;5014631;28;20061;-71
2023/05/29 10:48:06;;;;;;;0.10;0.10;;;19.40;99.90;;;;;;5015355;28;20026;-72
2023/05/29 10:50:51;;;;;;;0.13;0.13;;;19.90;99.90;;;;;;5015281;28;20036;-72
2023/05/29 10:53:31;;;;;;;0.10;0.10;;;20.00;99.90;;;;;;5015178;28;20387;-72
2023/05/29 10:55:59;;;;;;;0.15;0.15;;;19.90;99.90;;;;;;5015282;28;20093;-72
2023/05/29 10:58:25;;;;;;;0.10;0.10;;;19.80;99.90;;;;;;5015226;28;20030;-71
2023/05/29 11:00:57;;;;;;;0.10;0.10;;;19.50;99.90;;;;;;5014995;28;20041;-71
2023/05/29 11:03:25;;;;;;;0.10;0.10;;;19.70;99.90;;;;;;5015501;28;20022;-72
2023/05/29 11:06:07;;;;;;;0.10;0.10;;;19.70;99.90;;;;;;5014675;28;20033;-72
2023/05/29 11:08:47;;;;;;;0.10;0.10;;;19.70;99.90;;;;;;5014914;28;20014;-72
2023/05/29 11:11:35;;;;;;;0.10;0.10;;;19.60;99.90;;;;;;5014879;28;20049;-72
2023/05/29 11:14:04;;;;;;;0.10;0.10;;;19.60;99.90;;;;;;5015239;28;20559;-71
2023/05/29 11:16:32;;;;;;;0.20;0.20;;;19.90;99.90;;;;;;5014493;28;20033;-71
2023/05/29 11:19:03;;;;;;;0.10;0.10;;;19.90;99.90;;;;;;5014663;28;20084;-71
2023/05/29 11:21:43;;;;;;;0.10;0.10;;;20.20;99.90;;;;;;5014549;28;20435;-72
2023/05/29 11:24:24;;;;;;;0.10;0.10;;;19.80;99.90;;;;;;5014930;28;20037;-72
2023/05/29 11:26:51;;;;;;;0.10;0.10;;;19.80;99.90;;;;;;5014693;28;20553;-72
2023/05/29 11:29:27;;;;;;;0.10;0.10;;;20.10;99.90;;;;;;4997166;28;20033;-72
2023/05/29 11:32:04;;;;;;;0.10;0.10;;;20.10;99.90;;;;;;5014494;28;20400;-72
2023/05/29 11:34:31;;;;;;;0.10;0.10;;;20.10;99.90;;;;;;5014057;28;20109;-72
2023/05/29 11:36:58;;;;;;;0.10;0.10;;;20.10;99.90;;;;;;5014570;28;20029;-72
2023/05/29 11:39:24;;;;;;;0.10;0.10;;;20.10;99.90;;;;;;5014345;28;20054;-72
2023/05/29 11:41:51;;;;;;;0.10;0.10;;;20.20;99.90;;;;;;5014576;28;20068;-72
2023/05/29 11:44:17;;;;;;;0.10;0.10;;;20.20;99.90;;;;;;5014193;28;20076;-72
2023/05/29 11:46:43;;;;;;;0.10;0.10;;;20.20;99.90;;;;;;5014086;28;20030;-72
2023/05/29 11:49:08;;;;;;;0.10;0.10;;;20.40;99.90;;;;;;5013847;28;20403;-72
2023/05/29 11:51:34;;;;;;;0.05;0.05;;;20.60;99.90;;;;;;5014345;28;20022;-72
2023/05/29 11:53:59;;;;;;;0.10;0.10;;;20.50;99.90;;;;;;5013870;28;20543;-71
2023/05/29 11:56:29;;;;;;;0.10;0.10;;;20.90;99.90;;;;;;5013519;28;20022;-72
2023/05/29 11:58:59;;;;;;;0.10;0.10;;;21.30;99.90;;;;;;5014246;28;20492;-72
2023/05/29 12:01:25;;;;;;;0.10;0.10;;;21.70;99.90;;;;;;5013180;28;20025;-72
2023/05/29 12:03:51;;;;;;;0.10;0.10;;;22.20;99.90;;;;;;5014001;28;20029;-71
2023/05/29 12:06:34;;;;;;;0.10;0.10;;;22.00;99.90;;;;;;5014007;28;20080;-72
2023/05/29 12:09:00;;;;;;;0.00;0.00;;;21.80;99.90;;;;;;5013938;28;20029;-72
2023/05/29 12:11:26;;;;;;;0.10;0.10;;;21.80;99.90;;;;;;4996411;28;20047;-72
2023/05/29 12:13:59;;;;;;;0.10;0.10;;;21.90;99.90;;;;;;5013528;28;20069;-71
2023/05/29 12:16:26;;;;;;;0.10;0.10;;;22.00;99.90;;;;;;5013949;28;20511;-71
2023/05/29 12:18:52;;;;;;;0.17;0.17;;;21.70;99.90;;;;;;5013686;28;20038;-72
2023/05/29 12:21:21;;;;;;;0.10;0.10;;;21.80;99.90;;;;;;5013517;28;20100;-71
2023/05/29 12:23:46;;;;;;;0.00;0.00;;;21.90;99.90;;;;;;5013572;28;20033;-71
2023/05/29 12:26:12;;;;;;;0.10;0.10;;;22.10;99.90;;;;;;5013438;28;20053;-71
2023/05/29 12:28:44;;;;;;;0.10;0.10;;;22.10;99.90;;;;;;5013366;28;20491;-71
2023/05/29 12:31:09;;;;;;;0.10;0.10;;;22.50;99.90;;;;;;5013533;28;20492;-70
2023/05/29 12:33:36;;;;;;;0.10;0.10;;;22.40;99.90;;;;;;4995786;28;20115;-71
2023/05/29 12:36:04;;;;;;;0.10;0.10;;;22.50;99.90;;;;;;5013486;28;20022;-71
2023/05/29 12:38:30;;;;;;;0.10;0.10;;;22.50;99.90;;;;;;4995413;28;20032;-70
2023/05/29 12:40:56;;;;;;;0.00;0.00;;;22.00;99.90;;;;;;5013472;28;20026;-71
2023/05/29 12:43:22;;;;;;;0.10;0.10;;;22.10;99.90;;;;;;5013245;28;20026;-71
2023/05/29 12:45:55;;;;;;;0.10;0.10;;;22.30;99.90;;;;;;4995748;28;20033;-71
2023/05/29 12:48:22;;;;;;;0.10;0.10;;;22.20;99.90;;;;;;5013558;28;20111;-71
2023/05/29 12:50:49;;;;;;;0.05;0.05;;;21.50;99.90;;;;;;5013690;28;20033;-71